sensor_id;sensor_type;location;lat;lon;timestamp;P1;durP1;ratioP1;P2;durP2;ratioP2
25049;SDS011;13046;49.814;9.918;2023-08-17T00:01:52;2.17;;;1.30;;
25049;SDS011;13046;49.814;9.918;2023-08-17T00:04:18;5.68;;;2.55;;
25049;SDS011;13046;49.814;9.918;2023-08-17T00:06:44;4.28;;;1.63;;
25049;SDS011;13046;49.814;9.918;2023-08-17T00:09:12;4.50;;;1.48;;
25049;SDS011;13046;49.814;9.918;2023-08-17T00:11:38;1.70;;;1.60;;
25049;SDS011;13046;49.814;9.918;2023-08-17T00:14:04;2.67;;;1.80;;
25049;SDS011;13046;49.814;9.918;2023-08-17T00:16:31;9.02;;;1.95;;
25049;SDS011;13046;49.814;9.918;2023-08-17T00:18:57;2.78;;;1.55;;
25049;SDS011;13046;49.814;9.918;2023-08-17T00:21:23;4.85;;;2.72;;
25049;SDS011;13046;49.814;9.918;2023-08-17T00:23:49;2.15;;;1.55;;
25049;SDS011;13046;49.814;9.918;2023-08-17T00:26:16;3.20;;;1.70;;
25049;SDS011;13046;49.814;9.918;2023-08-17T00:28:42;2.67;;;1.55;;
25049;SDS011;13046;49.814;9.918;2023-08-17T00:31:09;6.28;;;2.50;;
25049;SDS011;13046;49.814;9.918;2023-08-17T00:33:37;3.70;;;1.98;;
25049;SDS011;13046;49.814;9.918;2023-08-17T00:36:04;3.10;;;1.70;;
25049;SDS011;13046;49.814;9.918;2023-08-17T00:38:31;1.90;;;1.67;;
25049;SDS011;13046;49.814;9.918;2023-08-17T00:40:57;3.15;;;2.10;;
25049;SDS011;13046;49.814;9.918;2023-08-17T00:43:23;4.55;;;3.03;;
25049;SDS011;13046;49.814;9.918;2023-08-17T00:45:49;5.43;;;1.88;;
25049;SDS011;13046;49.814;9.918;2023-08-17T00:48:15;2.35;;;1.85;;
25049;SDS011;13046;49.814;9.918;2023-08-17T00:50:42;3.15;;;1.73;;
25049;SDS011;13046;49.814;9.918;2023-08-17T00:53:09;2.40;;;1.65;;
25049;SDS011;13046;49.814;9.918;2023-08-17T00:55:38;3.88;;;1.85;;
25049;SDS011;13046;49.814;9.918;2023-08-17T00:58:04;2.38;;;1.70;;
25049;SDS011;13046;49.814;9.918;2023-08-17T01:00:32;2.05;;;1.48;;
25049;SDS011;13046;49.814;9.918;2023-08-17T01:02:58;2.97;;;2.03;;
25049;SDS011;13046;49.814;9.918;2023-08-17T01:05:24;4.10;;;2.08;;
25049;SDS011;13046;49.814;9.918;2023-08-17T01:07:50;2.30;;;2.00;;
25049;SDS011;13046;49.814;9.918;2023-08-17T01:10:17;2.55;;;2.35;;
25049;SDS011;13046;49.814;9.918;2023-08-17T01:12:48;3.20;;;2.70;;
25049;SDS011;13046;49.814;9.918;2023-08-17T01:15:19;4.53;;;2.15;;
25049;SDS011;13046;49.814;9.918;2023-08-17T01:20:32;2.42;;;2.08;;
25049;SDS011;13046;49.814;9.918;2023-08-17T01:23:05;2.80;;;1.98;;
25049;SDS011;13046;49.814;9.918;2023-08-17T01:25:32;1.95;;;1.83;;
25049;SDS011;13046;49.814;9.918;2023-08-17T01:28:04;3.63;;;2.17;;
25049;SDS011;13046;49.814;9.918;2023-08-17T01:30:44;2.97;;;2.30;;
25049;SDS011;13046;49.814;9.918;2023-08-17T01:33:13;3.60;;;2.20;;
25049;SDS011;13046;49.814;9.918;2023-08-17T01:35:44;3.88;;;2.97;;
25049;SDS011;13046;49.814;9.918;2023-08-17T01:38:14;3.78;;;2.50;;
25049;SDS011;13046;49.814;9.918;2023-08-17T01:40:43;2.38;;;2.15;;
25049;SDS011;13046;49.814;9.918;2023-08-17T01:43:10;2.72;;;2.53;;
25049;SDS011;13046;49.814;9.918;2023-08-17T01:45:37;2.28;;;2.05;;
25049;SDS011;13046;49.814;9.918;2023-08-17T01:48:03;2.85;;;2.15;;
25049;SDS011;13046;49.814;9.918;2023-08-17T01:50:29;2.85;;;2.20;;
25049;SDS011;13046;49.814;9.918;2023-08-17T01:52:55;2.80;;;2.50;;
25049;SDS011;13046;49.814;9.918;2023-08-17T01:55:22;2.95;;;2.28;;
25049;SDS011;13046;49.814;9.918;2023-08-17T01:57:48;6.13;;;2.38;;
25049;SDS011;13046;49.814;9.918;2023-08-17T02:00:14;2.53;;;1.60;;
25049;SDS011;13046;49.814;9.918;2023-08-17T02:02:41;2.75;;;2.30;;
25049;SDS011;13046;49.814;9.918;2023-08-17T02:05:07;4.60;;;2.63;;
25049;SDS011;13046;49.814;9.918;2023-08-17T02:07:33;3.15;;;2.13;;
25049;SDS011;13046;49.814;9.918;2023-08-17T02:09:59;4.35;;;2.45;;
25049;SDS011;13046;49.814;9.918;2023-08-17T02:12:25;4.35;;;2.25;;
25049;SDS011;13046;49.814;9.918;2023-08-17T02:14:51;3.25;;;2.28;;
25049;SDS011;13046;49.814;9.918;2023-08-17T02:17:18;4.47;;;2.55;;
25049;SDS011;13046;49.814;9.918;2023-08-17T02:19:46;2.78;;;2.58;;
25049;SDS011;13046;49.814;9.918;2023-08-17T02:22:13;4.38;;;2.55;;
25049;SDS011;13046;49.814;9.918;2023-08-17T02:24:39;7.45;;;3.78;;
25049;SDS011;13046;49.814;9.918;2023-08-17T02:27:06;2.92;;;2.30;;
25049;SDS011;13046;49.814;9.918;2023-08-17T02:29:32;2.88;;;2.10;;
25049;SDS011;13046;49.814;9.918;2023-08-17T02:31:58;2.80;;;2.53;;
25049;SDS011;13046;49.814;9.918;2023-08-17T02:34:25;5.15;;;2.17;;
25049;SDS011;13046;49.814;9.918;2023-08-17T02:36:52;5.68;;;2.30;;
25049;SDS011;13046;49.814;9.918;2023-08-17T02:39:18;3.50;;;2.20;;
25049;SDS011;13046;49.814;9.918;2023-08-17T02:41:44;2.08;;;1.90;;
25049;SDS011;13046;49.814;9.918;2023-08-17T02:44:10;5.47;;;2.80;;
25049;SDS011;13046;49.814;9.918;2023-08-17T02:46:36;3.50;;;2.40;;
25049;SDS011;13046;49.814;9.918;2023-08-17T02:49:02;3.83;;;2.40;;
25049;SDS011;13046;49.814;9.918;2023-08-17T02:51:28;5.03;;;2.40;;
25049;SDS011;13046;49.814;9.918;2023-08-17T02:53:54;7.40;;;2.65;;
25049;SDS011;13046;49.814;9.918;2023-08-17T02:56:20;5.80;;;2.15;;
25049;SDS011;13046;49.814;9.918;2023-08-17T02:58:46;2.85;;;2.38;;
25049;SDS011;13046;49.814;9.918;2023-08-17T03:01:12;7.13;;;3.00;;
25049;SDS011;13046;49.814;9.918;2023-08-17T03:03:38;6.22;;;2.85;;
25049;SDS011;13046;49.814;9.918;2023-08-17T03:06:05;4.95;;;2.63;;
25049;SDS011;13046;49.814;9.918;2023-08-17T03:08:31;5.75;;;2.22;;
25049;SDS011;13046;49.814;9.918;2023-08-17T03:10:57;3.80;;;2.42;;
25049;SDS011;13046;49.814;9.918;2023-08-17T03:13:23;4.25;;;2.95;;
25049;SDS011;13046;49.814;9.918;2023-08-17T03:15:49;4.20;;;2.47;;
25049;SDS011;13046;49.814;9.918;2023-08-17T03:18:15;3.15;;;2.85;;
25049;SDS011;13046;49.814;9.918;2023-08-17T03:20:41;4.95;;;2.45;;
25049;SDS011;13046;49.814;9.918;2023-08-17T03:23:07;2.95;;;2.72;;
25049;SDS011;13046;49.814;9.918;2023-08-17T03:25:34;9.63;;;3.10;;
25049;SDS011;13046;49.814;9.918;2023-08-17T03:28:00;4.43;;;2.78;;
25049;SDS011;13046;49.814;9.918;2023-08-17T03:30:26;6.35;;;3.00;;
25049;SDS011;13046;49.814;9.918;2023-08-17T03:32:53;5.57;;;2.95;;
25049;SDS011;13046;49.814;9.918;2023-08-17T03:35:19;7.15;;;2.80;;
25049;SDS011;13046;49.814;9.918;2023-08-17T03:37:45;3.72;;;2.78;;
25049;SDS011;13046;49.814;9.918;2023-08-17T03:40:12;11.50;;;3.10;;
25049;SDS011;13046;49.814;9.918;2023-08-17T03:42:39;4.18;;;2.90;;
25049;SDS011;13046;49.814;9.918;2023-08-17T03:45:06;6.80;;;2.60;;
25049;SDS011;13046;49.814;9.918;2023-08-17T03:47:32;3.25;;;2.95;;
25049;SDS011;13046;49.814;9.918;2023-08-17T03:50:00;3.92;;;2.50;;
25049;SDS011;13046;49.814;9.918;2023-08-17T03:52:26;2.95;;;2.63;;
25049;SDS011;13046;49.814;9.918;2023-08-17T03:54:52;3.55;;;3.00;;
25049;SDS011;13046;49.814;9.918;2023-08-17T03:57:18;3.67;;;3.03;;
25049;SDS011;13046;49.814;9.918;2023-08-17T03:59:44;22.27;;;5.72;;
25049;SDS011;13046;49.814;9.918;2023-08-17T04:02:11;6.20;;;3.92;;
25049;SDS011;13046;49.814;9.918;2023-08-17T04:04:37;7.63;;;3.40;;
25049;SDS011;13046;49.814;9.918;2023-08-17T04:07:04;6.18;;;3.60;;
25049;SDS011;13046;49.814;9.918;2023-08-17T04:09:31;4.82;;;3.05;;
25049;SDS011;13046;49.814;9.918;2023-08-17T04:11:58;6.70;;;3.70;;
25049;SDS011;13046;49.814;9.918;2023-08-17T04:14:24;6.45;;;3.33;;
25049;SDS011;13046;49.814;9.918;2023-08-17T04:16:53;4.70;;;3.00;;
25049;SDS011;13046;49.814;9.918;2023-08-17T04:19:20;4.72;;;3.25;;
25049;SDS011;13046;49.814;9.918;2023-08-17T04:21:46;6.03;;;3.13;;
25049;SDS011;13046;49.814;9.918;2023-08-17T04:24:13;4.10;;;3.08;;
25049;SDS011;13046;49.814;9.918;2023-08-17T04:26:40;3.88;;;2.80;;
25049;SDS011;13046;49.814;9.918;2023-08-17T04:29:06;7.10;;;3.08;;
25049;SDS011;13046;49.814;9.918;2023-08-17T04:31:32;5.00;;;3.58;;
25049;SDS011;13046;49.814;9.918;2023-08-17T04:34:01;7.32;;;3.13;;
25049;SDS011;13046;49.814;9.918;2023-08-17T04:36:27;3.72;;;3.20;;
25049;SDS011;13046;49.814;9.918;2023-08-17T04:38:54;4.40;;;3.13;;
25049;SDS011;13046;49.814;9.918;2023-08-17T04:41:20;6.43;;;3.53;;
25049;SDS011;13046;49.814;9.918;2023-08-17T04:43:46;9.18;;;4.32;;
25049;SDS011;13046;49.814;9.918;2023-08-17T04:46:15;6.47;;;3.63;;
25049;SDS011;13046;49.814;9.918;2023-08-17T04:48:41;5.53;;;3.60;;
25049;SDS011;13046;49.814;9.918;2023-08-17T04:51:07;4.65;;;4.25;;
25049;SDS011;13046;49.814;9.918;2023-08-17T04:53:33;6.78;;;3.72;;
25049;SDS011;13046;49.814;9.918;2023-08-17T04:56:00;5.93;;;3.50;;
25049;SDS011;13046;49.814;9.918;2023-08-17T04:58:27;11.02;;;4.75;;
25049;SDS011;13046;49.814;9.918;2023-08-17T05:00:53;9.63;;;3.60;;
25049;SDS011;13046;49.814;9.918;2023-08-17T05:03:19;6.25;;;4.20;;
25049;SDS011;13046;49.814;9.918;2023-08-17T05:05:45;4.18;;;3.78;;
25049;SDS011;13046;49.814;9.918;2023-08-17T05:08:12;8.65;;;3.70;;
25049;SDS011;13046;49.814;9.918;2023-08-17T05:10:39;13.23;;;4.38;;
25049;SDS011;13046;49.814;9.918;2023-08-17T05:13:05;8.45;;;3.95;;
25049;SDS011;13046;49.814;9.918;2023-08-17T05:15:31;10.27;;;4.68;;
25049;SDS011;13046;49.814;9.918;2023-08-17T05:17:58;5.13;;;4.05;;
25049;SDS011;13046;49.814;9.918;2023-08-17T05:20:24;3.55;;;3.25;;
25049;SDS011;13046;49.814;9.918;2023-08-17T05:22:51;9.73;;;4.47;;
25049;SDS011;13046;49.814;9.918;2023-08-17T05:25:17;8.40;;;4.55;;
25049;SDS011;13046;49.814;9.918;2023-08-17T05:27:44;8.23;;;3.75;;
25049;SDS011;13046;49.814;9.918;2023-08-17T05:30:10;5.35;;;3.75;;
25049;SDS011;13046;49.814;9.918;2023-08-17T05:32:36;7.22;;;4.90;;
25049;SDS011;13046;49.814;9.918;2023-08-17T05:35:03;6.72;;;3.88;;
25049;SDS011;13046;49.814;9.918;2023-08-17T05:37:29;6.72;;;3.35;;
25049;SDS011;13046;49.814;9.918;2023-08-17T05:39:56;4.70;;;3.45;;
25049;SDS011;13046;49.814;9.918;2023-08-17T05:42:22;5.93;;;3.45;;
25049;SDS011;13046;49.814;9.918;2023-08-17T05:44:49;4.18;;;3.78;;
25049;SDS011;13046;49.814;9.918;2023-08-17T05:47:15;27.45;;;5.63;;
25049;SDS011;13046;49.814;9.918;2023-08-17T05:49:44;4.72;;;3.60;;
25049;SDS011;13046;49.814;9.918;2023-08-17T05:52:10;7.85;;;3.55;;
25049;SDS011;13046;49.814;9.918;2023-08-17T05:54:36;3.85;;;3.55;;
25049;SDS011;13046;49.814;9.918;2023-08-17T05:57:02;7.07;;;3.58;;
25049;SDS011;13046;49.814;9.918;2023-08-17T05:59:29;3.58;;;3.25;;
25049;SDS011;13046;49.814;9.918;2023-08-17T06:01:55;5.88;;;3.40;;
25049;SDS011;13046;49.814;9.918;2023-08-17T06:04:21;10.13;;;5.43;;
25049;SDS011;13046;49.814;9.918;2023-08-17T06:06:47;4.82;;;3.78;;
25049;SDS011;13046;49.814;9.918;2023-08-17T06:09:13;7.03;;;3.17;;
25049;SDS011;13046;49.814;9.918;2023-08-17T06:11:39;6.90;;;4.68;;
25049;SDS011;13046;49.814;9.918;2023-08-17T06:14:06;7.63;;;3.75;;
25049;SDS011;13046;49.814;9.918;2023-08-17T06:16:32;6.55;;;3.17;;
25049;SDS011;13046;49.814;9.918;2023-08-17T06:18:58;5.78;;;3.38;;
25049;SDS011;13046;49.814;9.918;2023-08-17T06:21:24;6.07;;;4.38;;
25049;SDS011;13046;49.814;9.918;2023-08-17T06:23:50;5.53;;;4.15;;
25049;SDS011;13046;49.814;9.918;2023-08-17T06:26:16;4.72;;;3.65;;
25049;SDS011;13046;49.814;9.918;2023-08-17T06:28:43;6.53;;;3.53;;
25049;SDS011;13046;49.814;9.918;2023-08-17T06:31:09;7.28;;;3.35;;
25049;SDS011;13046;49.814;9.918;2023-08-17T06:33:35;4.32;;;3.92;;
25049;SDS011;13046;49.814;9.918;2023-08-17T06:36:01;5.30;;;4.25;;
25049;SDS011;13046;49.814;9.918;2023-08-17T06:38:27;5.38;;;4.88;;
25049;SDS011;13046;49.814;9.918;2023-08-17T06:40:53;7.43;;;4.00;;
25049;SDS011;13046;49.814;9.918;2023-08-17T06:43:19;6.97;;;4.10;;
25049;SDS011;13046;49.814;9.918;2023-08-17T06:45:45;5.65;;;3.30;;
25049;SDS011;13046;49.814;9.918;2023-08-17T06:48:11;7.72;;;4.93;;
25049;SDS011;13046;49.814;9.918;2023-08-17T06:50:37;7.13;;;3.90;;
25049;SDS011;13046;49.814;9.918;2023-08-17T06:53:04;4.85;;;3.60;;
25049;SDS011;13046;49.814;9.918;2023-08-17T06:55:30;6.38;;;3.35;;
25049;SDS011;13046;49.814;9.918;2023-08-17T06:57:56;4.55;;;3.72;;
25049;SDS011;13046;49.814;9.918;2023-08-17T07:00:22;4.18;;;3.85;;
25049;SDS011;13046;49.814;9.918;2023-08-17T07:02:49;7.05;;;4.38;;
25049;SDS011;13046;49.814;9.918;2023-08-17T07:05:16;5.65;;;3.60;;
25049;SDS011;13046;49.814;9.918;2023-08-17T07:07:42;9.88;;;4.75;;
25049;SDS011;13046;49.814;9.918;2023-08-17T07:10:10;6.22;;;4.43;;
25049;SDS011;13046;49.814;9.918;2023-08-17T07:12:37;5.03;;;3.53;;
25049;SDS011;13046;49.814;9.918;2023-08-17T07:15:04;4.53;;;3.22;;
25049;SDS011;13046;49.814;9.918;2023-08-17T07:17:30;10.77;;;5.15;;
25049;SDS011;13046;49.814;9.918;2023-08-17T07:19:57;3.80;;;3.40;;
25049;SDS011;13046;49.814;9.918;2023-08-17T07:22:26;6.47;;;3.40;;
25049;SDS011;13046;49.814;9.918;2023-08-17T07:24:52;9.30;;;5.13;;
25049;SDS011;13046;49.814;9.918;2023-08-17T07:27:18;9.23;;;5.55;;
25049;SDS011;13046;49.814;9.918;2023-08-17T07:29:44;9.63;;;5.47;;
25049;SDS011;13046;49.814;9.918;2023-08-17T07:32:10;8.95;;;3.88;;
25049;SDS011;13046;49.814;9.918;2023-08-17T07:34:36;6.85;;;4.78;;
25049;SDS011;13046;49.814;9.918;2023-08-17T07:37:05;6.78;;;4.22;;
25049;SDS011;13046;49.814;9.918;2023-08-17T07:39:32;9.43;;;4.13;;
25049;SDS011;13046;49.814;9.918;2023-08-17T07:41:58;4.25;;;3.85;;
25049;SDS011;13046;49.814;9.918;2023-08-17T07:44:24;5.07;;;3.67;;
25049;SDS011;13046;49.814;9.918;2023-08-17T07:46:50;4.57;;;3.88;;
25049;SDS011;13046;49.814;9.918;2023-08-17T07:49:16;7.85;;;4.30;;
25049;SDS011;13046;49.814;9.918;2023-08-17T07:51:42;5.78;;;3.80;;
25049;SDS011;13046;49.814;9.918;2023-08-17T07:54:08;4.35;;;3.70;;
25049;SDS011;13046;49.814;9.918;2023-08-17T07:56:34;6.35;;;3.42;;
25049;SDS011;13046;49.814;9.918;2023-08-17T07:59:00;7.25;;;4.32;;
25049;SDS011;13046;49.814;9.918;2023-08-17T08:01:26;4.35;;;3.97;;
25049;SDS011;13046;49.814;9.918;2023-08-17T08:03:52;3.47;;;3.17;;
25049;SDS011;13046;49.814;9.918;2023-08-17T08:06:18;6.40;;;3.88;;
25049;SDS011;13046;49.814;9.918;2023-08-17T08:08:45;7.50;;;3.92;;
25049;SDS011;13046;49.814;9.918;2023-08-17T08:11:12;6.97;;;4.80;;
25049;SDS011;13046;49.814;9.918;2023-08-17T08:13:38;5.75;;;4.15;;
25049;SDS011;13046;49.814;9.918;2023-08-17T08:16:04;7.28;;;5.75;;
25049;SDS011;13046;49.814;9.918;2023-08-17T08:18:30;11.07;;;5.38;;
25049;SDS011;13046;49.814;9.918;2023-08-17T08:20:56;4.82;;;3.97;;
25049;SDS011;13046;49.814;9.918;2023-08-17T08:23:22;5.68;;;4.63;;
25049;SDS011;13046;49.814;9.918;2023-08-17T08:25:51;5.15;;;4.68;;
25049;SDS011;13046;49.814;9.918;2023-08-17T08:28:17;6.43;;;4.25;;
25049;SDS011;13046;49.814;9.918;2023-08-17T08:30:43;6.22;;;4.70;;
25049;SDS011;13046;49.814;9.918;2023-08-17T08:33:09;8.13;;;5.30;;
25049;SDS011;13046;49.814;9.918;2023-08-17T08:35:35;6.93;;;5.25;;
25049;SDS011;13046;49.814;9.918;2023-08-17T08:38:01;5.90;;;4.55;;
25049;SDS011;13046;49.814;9.918;2023-08-17T08:40:28;5.95;;;5.40;;
25049;SDS011;13046;49.814;9.918;2023-08-17T08:42:54;6.40;;;5.60;;
25049;SDS011;13046;49.814;9.918;2023-08-17T08:45:21;6.00;;;5.05;;
25049;SDS011;13046;49.814;9.918;2023-08-17T08:47:48;7.75;;;6.47;;
25049;SDS011;13046;49.814;9.918;2023-08-17T08:50:16;7.30;;;6.60;;
25049;SDS011;13046;49.814;9.918;2023-08-17T08:52:50;7.15;;;6.18;;
25049;SDS011;13046;49.814;9.918;2023-08-17T08:55:18;6.85;;;6.25;;
25049;SDS011;13046;49.814;9.918;2023-08-17T08:57:45;7.65;;;6.95;;
25049;SDS011;13046;49.814;9.918;2023-08-17T09:00:12;7.78;;;7.00;;
25049;SDS011;13046;49.814;9.918;2023-08-17T09:02:39;7.80;;;7.00;;
25049;SDS011;13046;49.814;9.918;2023-08-17T09:05:06;6.97;;;6.28;;
25049;SDS011;13046;49.814;9.918;2023-08-17T09:07:32;7.68;;;6.85;;
25049;SDS011;13046;49.814;9.918;2023-08-17T09:09:58;7.32;;;6.72;;
25049;SDS011;13046;49.814;9.918;2023-08-17T09:12:25;6.82;;;6.10;;
25049;SDS011;13046;49.814;9.918;2023-08-17T09:14:51;7.88;;;7.03;;
25049;SDS011;13046;49.814;9.918;2023-08-17T09:17:24;11.18;;;7.65;;
25049;SDS011;13046;49.814;9.918;2023-08-17T09:19:50;8.10;;;6.90;;
25049;SDS011;13046;49.814;9.918;2023-08-17T09:22:36;7.60;;;6.85;;
25049;SDS011;13046;49.814;9.918;2023-08-17T09:25:04;7.38;;;6.75;;
25049;SDS011;13046;49.814;9.918;2023-08-17T09:27:31;9.30;;;8.20;;
25049;SDS011;13046;49.814;9.918;2023-08-17T09:30:04;7.90;;;7.28;;
25049;SDS011;13046;49.814;9.918;2023-08-17T09:32:31;15.10;;;8.25;;
25049;SDS011;13046;49.814;9.918;2023-08-17T09:34:58;8.55;;;7.43;;
25049;SDS011;13046;49.814;9.918;2023-08-17T09:37:26;17.00;;;8.70;;
25049;SDS011;13046;49.814;9.918;2023-08-17T09:39:53;8.13;;;7.32;;
25049;SDS011;13046;49.814;9.918;2023-08-17T09:42:20;8.30;;;6.50;;
25049;SDS011;13046;49.814;9.918;2023-08-17T09:44:47;7.22;;;6.43;;
25049;SDS011;13046;49.814;9.918;2023-08-17T09:47:14;11.07;;;7.70;;
25049;SDS011;13046;49.814;9.918;2023-08-17T09:49:40;7.03;;;6.35;;
25049;SDS011;13046;49.814;9.918;2023-08-17T09:52:06;7.88;;;7.18;;
25049;SDS011;13046;49.814;9.918;2023-08-17T09:54:32;8.43;;;7.70;;
25049;SDS011;13046;49.814;9.918;2023-08-17T09:56:58;8.73;;;6.07;;
25049;SDS011;13046;49.814;9.918;2023-08-17T09:59:24;7.40;;;6.70;;
25049;SDS011;13046;49.814;9.918;2023-08-17T10:01:50;7.38;;;6.70;;
25049;SDS011;13046;49.814;9.918;2023-08-17T10:04:20;10.07;;;7.03;;
25049;SDS011;13046;49.814;9.918;2023-08-17T10:06:48;6.97;;;6.38;;
25049;SDS011;13046;49.814;9.918;2023-08-17T10:09:14;6.85;;;5.93;;
25049;SDS011;13046;49.814;9.918;2023-08-17T10:11:43;8.23;;;7.40;;
25049;SDS011;13046;49.814;9.918;2023-08-17T10:14:13;7.00;;;6.50;;
25049;SDS011;13046;49.814;9.918;2023-08-17T10:16:44;9.30;;;6.90;;
25049;SDS011;13046;49.814;9.918;2023-08-17T10:21:42;7.53;;;6.80;;
25049;SDS011;13046;49.814;9.918;2023-08-17T10:24:09;7.90;;;7.10;;
25049;SDS011;13046;49.814;9.918;2023-08-17T10:26:36;8.40;;;7.60;;
25049;SDS011;13046;49.814;9.918;2023-08-17T10:29:02;7.05;;;6.55;;
25049;SDS011;13046;49.814;9.918;2023-08-17T10:31:29;9.40;;;8.68;;
25049;SDS011;13046;49.814;9.918;2023-08-17T10:33:56;10.40;;;8.07;;
25049;SDS011;13046;49.814;9.918;2023-08-17T10:36:22;8.50;;;7.70;;
25049;SDS011;13046;49.814;9.918;2023-08-17T10:39:17;7.35;;;6.75;;
25049;SDS011;13046;49.814;9.918;2023-08-17T10:41:45;7.53;;;6.72;;
25049;SDS011;13046;49.814;9.918;2023-08-17T10:44:11;8.00;;;7.30;;
25049;SDS011;13046;49.814;9.918;2023-08-17T10:46:38;8.18;;;7.13;;
25049;SDS011;13046;49.814;9.918;2023-08-17T10:49:24;8.20;;;7.40;;
25049;SDS011;13046;49.814;9.918;2023-08-17T10:52:03;8.55;;;6.80;;
25049;SDS011;13046;49.814;9.918;2023-08-17T10:54:36;7.60;;;6.88;;
25049;SDS011;13046;49.814;9.918;2023-08-17T11:00:04;7.53;;;6.82;;
25049;SDS011;13046;49.814;9.918;2023-08-17T11:02:32;8.18;;;7.13;;
25049;SDS011;13046;49.814;9.918;2023-08-17T11:04:58;7.80;;;7.18;;
25049;SDS011;13046;49.814;9.918;2023-08-17T11:07:24;7.38;;;6.57;;
25049;SDS011;13046;49.814;9.918;2023-08-17T11:09:53;8.07;;;7.22;;
25049;SDS011;13046;49.814;9.918;2023-08-17T11:12:26;7.45;;;6.72;;
25049;SDS011;13046;49.814;9.918;2023-08-17T11:14:52;8.43;;;7.15;;
25049;SDS011;13046;49.814;9.918;2023-08-17T11:17:22;8.90;;;8.07;;
25049;SDS011;13046;49.814;9.918;2023-08-17T11:19:48;9.75;;;7.72;;
25049;SDS011;13046;49.814;9.918;2023-08-17T11:22:16;9.30;;;7.95;;
25049;SDS011;13046;49.814;9.918;2023-08-17T11:24:42;8.70;;;7.78;;
25049;SDS011;13046;49.814;9.918;2023-08-17T11:27:09;9.80;;;8.43;;
25049;SDS011;13046;49.814;9.918;2023-08-17T11:29:35;8.10;;;7.40;;
25049;SDS011;13046;49.814;9.918;2023-08-17T11:32:02;7.57;;;6.93;;
25049;SDS011;13046;49.814;9.918;2023-08-17T11:34:29;8.20;;;7.43;;
25049;SDS011;13046;49.814;9.918;2023-08-17T11:36:56;7.78;;;7.13;;
25049;SDS011;13046;49.814;9.918;2023-08-17T11:39:23;8.23;;;7.53;;
25049;SDS011;13046;49.814;9.918;2023-08-17T11:41:49;9.07;;;8.25;;
25049;SDS011;13046;49.814;9.918;2023-08-17T11:44:18;8.38;;;7.65;;
25049;SDS011;13046;49.814;9.918;2023-08-17T11:46:47;12.38;;;8.65;;
25049;SDS011;13046;49.814;9.918;2023-08-17T11:49:13;9.02;;;8.18;;
25049;SDS011;13046;49.814;9.918;2023-08-17T11:51:39;9.52;;;8.68;;
25049;SDS011;13046;49.814;9.918;2023-08-17T11:54:05;7.78;;;7.13;;
25049;SDS011;13046;49.814;9.918;2023-08-17T11:56:33;14.52;;;7.75;;
25049;SDS011;13046;49.814;9.918;2023-08-17T11:58:59;9.88;;;8.50;;
25049;SDS011;13046;49.814;9.918;2023-08-17T12:01:34;9.50;;;8.25;;
25049;SDS011;13046;49.814;9.918;2023-08-17T12:04:03;8.88;;;7.95;;
25049;SDS011;13046;49.814;9.918;2023-08-17T12:06:30;8.02;;;7.22;;
25049;SDS011;13046;49.814;9.918;2023-08-17T12:08:56;8.45;;;7.75;;
25049;SDS011;13046;49.814;9.918;2023-08-17T12:11:25;9.32;;;7.75;;
25049;SDS011;13046;49.814;9.918;2023-08-17T12:13:52;8.52;;;7.53;;
25049;SDS011;13046;49.814;9.918;2023-08-17T12:16:18;8.00;;;7.30;;
25049;SDS011;13046;49.814;9.918;2023-08-17T12:18:48;9.07;;;8.18;;
25049;SDS011;13046;49.814;9.918;2023-08-17T12:21:14;9.00;;;8.27;;
25049;SDS011;13046;49.814;9.918;2023-08-17T12:23:40;9.35;;;8.48;;
25049;SDS011;13046;49.814;9.918;2023-08-17T12:26:08;9.23;;;8.27;;
25049;SDS011;13046;49.814;9.918;2023-08-17T12:28:34;9.27;;;8.48;;
25049;SDS011;13046;49.814;9.918;2023-08-17T12:31:00;9.05;;;8.18;;
25049;SDS011;13046;49.814;9.918;2023-08-17T12:33:27;9.38;;;8.57;;
25049;SDS011;13046;49.814;9.918;2023-08-17T12:35:53;9.18;;;8.30;;
25049;SDS011;13046;49.814;9.918;2023-08-17T12:38:19;9.68;;;8.75;;
25049;SDS011;13046;49.814;9.918;2023-08-17T12:40:45;9.32;;;8.52;;
25049;SDS011;13046;49.814;9.918;2023-08-17T12:43:11;9.45;;;8.50;;
25049;SDS011;13046;49.814;9.918;2023-08-17T12:45:37;9.18;;;8.48;;
25049;SDS011;13046;49.814;9.918;2023-08-17T12:48:03;9.30;;;8.60;;
25049;SDS011;13046;49.814;9.918;2023-08-17T12:50:29;8.30;;;7.70;;
25049;SDS011;13046;49.814;9.918;2023-08-17T12:52:55;8.57;;;7.88;;
25049;SDS011;13046;49.814;9.918;2023-08-17T12:55:21;8.27;;;7.68;;
25049;SDS011;13046;49.814;9.918;2023-08-17T12:57:47;8.45;;;7.65;;
25049;SDS011;13046;49.814;9.918;2023-08-17T13:00:13;9.23;;;8.55;;
25049;SDS011;13046;49.814;9.918;2023-08-17T13:02:39;8.98;;;7.95;;
25049;SDS011;13046;49.814;9.918;2023-08-17T13:05:06;8.30;;;7.63;;
25049;SDS011;13046;49.814;9.918;2023-08-17T13:07:32;10.23;;;9.07;;
25049;SDS011;13046;49.814;9.918;2023-08-17T13:09:58;9.48;;;8.50;;
25049;SDS011;13046;49.814;9.918;2023-08-17T13:12:24;10.70;;;8.45;;
25049;SDS011;13046;49.814;9.918;2023-08-17T13:14:50;8.93;;;8.23;;
25049;SDS011;13046;49.814;9.918;2023-08-17T13:17:17;9.50;;;8.70;;
25049;SDS011;13046;49.814;9.918;2023-08-17T13:19:43;9.52;;;8.63;;
25049;SDS011;13046;49.814;9.918;2023-08-17T13:22:09;9.32;;;7.93;;
25049;SDS011;13046;49.814;9.918;2023-08-17T13:24:35;8.57;;;7.78;;
25049;SDS011;13046;49.814;9.918;2023-08-17T13:27:01;8.10;;;7.60;;
25049;SDS011;13046;49.814;9.918;2023-08-17T13:29:27;9.57;;;8.70;;
25049;SDS011;13046;49.814;9.918;2023-08-17T13:31:53;9.52;;;8.73;;
25049;SDS011;13046;49.814;9.918;2023-08-17T13:34:19;9.80;;;9.10;;
25049;SDS011;13046;49.814;9.918;2023-08-17T13:36:45;9.95;;;9.15;;
25049;SDS011;13046;49.814;9.918;2023-08-17T13:39:11;8.43;;;7.63;;
25049;SDS011;13046;49.814;9.918;2023-08-17T13:41:37;9.20;;;8.50;;
25049;SDS011;13046;49.814;9.918;2023-08-17T13:44:05;9.65;;;8.20;;
25049;SDS011;13046;49.814;9.918;2023-08-17T13:46:31;8.35;;;7.68;;
25049;SDS011;13046;49.814;9.918;2023-08-17T13:48:57;8.45;;;7.63;;
25049;SDS011;13046;49.814;9.918;2023-08-17T13:51:24;8.85;;;8.15;;
25049;SDS011;13046;49.814;9.918;2023-08-17T13:53:50;8.32;;;7.70;;
25049;SDS011;13046;49.814;9.918;2023-08-17T13:56:16;10.95;;;8.35;;
25049;SDS011;13046;49.814;9.918;2023-08-17T13:58:42;7.57;;;6.95;;
25049;SDS011;13046;49.814;9.918;2023-08-17T14:01:08;8.55;;;7.80;;
25049;SDS011;13046;49.814;9.918;2023-08-17T14:03:36;7.85;;;7.18;;
25049;SDS011;13046;49.814;9.918;2023-08-17T14:06:02;8.75;;;8.02;;
25049;SDS011;13046;49.814;9.918;2023-08-17T14:08:28;8.52;;;7.65;;
25049;SDS011;13046;49.814;9.918;2023-08-17T14:10:54;7.93;;;7.28;;
25049;SDS011;13046;49.814;9.918;2023-08-17T14:13:20;8.18;;;7.47;;
25049;SDS011;13046;49.814;9.918;2023-08-17T14:15:46;8.82;;;6.93;;
25049;SDS011;13046;49.814;9.918;2023-08-17T14:18:12;8.40;;;7.68;;
25049;SDS011;13046;49.814;9.918;2023-08-17T14:20:38;8.65;;;7.90;;
25049;SDS011;13046;49.814;9.918;2023-08-17T14:23:04;9.27;;;7.50;;
25049;SDS011;13046;49.814;9.918;2023-08-17T14:25:30;6.38;;;5.93;;
25049;SDS011;13046;49.814;9.918;2023-08-17T14:27:59;9.38;;;7.07;;
25049;SDS011;13046;49.814;9.918;2023-08-17T14:30:25;7.43;;;6.57;;
25049;SDS011;13046;49.814;9.918;2023-08-17T14:32:51;8.20;;;7.50;;
25049;SDS011;13046;49.814;9.918;2023-08-17T14:35:17;8.98;;;6.85;;
25049;SDS011;13046;49.814;9.918;2023-08-17T14:37:45;8.25;;;7.43;;
25049;SDS011;13046;49.814;9.918;2023-08-17T14:40:11;7.30;;;6.70;;
25049;SDS011;13046;49.814;9.918;2023-08-17T14:42:38;7.10;;;6.60;;
25049;SDS011;13046;49.814;9.918;2023-08-17T14:45:04;8.13;;;7.32;;
25049;SDS011;13046;49.814;9.918;2023-08-17T14:47:30;7.97;;;7.38;;
25049;SDS011;13046;49.814;9.918;2023-08-17T14:49:56;7.43;;;6.68;;
25049;SDS011;13046;49.814;9.918;2023-08-17T14:52:22;8.00;;;7.30;;
25049;SDS011;13046;49.814;9.918;2023-08-17T14:54:49;8.10;;;7.50;;